Archival Weather

Half Moon Bay

Half Moon Bay, California (KHAF)

Report from: Thursday, September 21, 2023 12:55 AM PDT
Current time: Sunday, July 14, 2024 2:50 AM PDT

Current weather – Weather history – Daily summaries
Weather forecast

Temperature15.0°C (59.0°F)
Dew point12.0°C (53.6°F)
Winds 9 kts (4.6 m/s, 10.4 mph) South (180°)
Visibility5 mi. (8 km)
Altimeter29.85 in.Hg (1011 mB)
Relative humidity82 %
Density altitude278 ft. (85 m)
Remarks Fully automated report
Automated weather observing station with precipitation discriminator
Flight conditions Visual Meteorological Conditions
Raw dataKHAF 210755Z AUTO 18009KT 5SM HZ 15/12 A2985 RMK AO2
An error has occurred. This application may no longer respond until reloaded. Reload 🗙